sensor_id;sensor_type;location;lat;lon;timestamp;P1;durP1;ratioP1;P2;durP2;ratioP2
17983;SDS011;9117;52.420;20.728;2023-03-14T00:01:09;12.10;;;5.73;;
17983;SDS011;9117;52.420;20.728;2023-03-14T00:03:38;11.60;;;5.07;;
17983;SDS011;9117;52.420;20.728;2023-03-14T00:06:07;10.33;;;4.73;;
17983;SDS011;9117;52.420;20.728;2023-03-14T00:08:36;13.30;;;5.80;;
17983;SDS011;9117;52.420;20.728;2023-03-14T00:11:05;11.97;;;5.87;;
17983;SDS011;9117;52.420;20.728;2023-03-14T00:13:34;11.97;;;5.10;;
17983;SDS011;9117;52.420;20.728;2023-03-14T00:16:05;13.73;;;5.50;;
17983;SDS011;9117;52.420;20.728;2023-03-14T00:18:35;11.93;;;5.20;;
17983;SDS011;9117;52.420;20.728;2023-03-14T00:21:04;13.00;;;5.60;;
17983;SDS011;9117;52.420;20.728;2023-03-14T00:23:33;13.37;;;5.60;;
17983;SDS011;9117;52.420;20.728;2023-03-14T00:26:03;11.07;;;4.73;;
17983;SDS011;9117;52.420;20.728;2023-03-14T00:28:33;11.20;;;5.40;;
17983;SDS011;9117;52.420;20.728;2023-03-14T00:31:02;12.33;;;5.30;;
17983;SDS011;9117;52.420;20.728;2023-03-14T00:33:32;11.60;;;4.83;;
17983;SDS011;9117;52.420;20.728;2023-03-14T00:36:01;8.93;;;4.13;;
17983;SDS011;9117;52.420;20.728;2023-03-14T00:38:31;10.33;;;4.47;;
17983;SDS011;9117;52.420;20.728;2023-03-14T00:41:02;10.50;;;5.33;;
17983;SDS011;9117;52.420;20.728;2023-03-14T00:43:31;11.70;;;5.37;;
17983;SDS011;9117;52.420;20.728;2023-03-14T00:45:59;10.40;;;4.80;;
17983;SDS011;9117;52.420;20.728;2023-03-14T00:48:27;12.50;;;5.00;;
17983;SDS011;9117;52.420;20.728;2023-03-14T00:50:57;11.63;;;4.97;;
17983;SDS011;9117;52.420;20.728;2023-03-14T00:53:25;10.60;;;4.33;;
17983;SDS011;9117;52.420;20.728;2023-03-14T00:55:54;9.63;;;5.13;;
17983;SDS011;9117;52.420;20.728;2023-03-14T00:58:22;14.83;;;5.77;;
17983;SDS011;9117;52.420;20.728;2023-03-14T01:00:50;11.50;;;5.13;;
17983;SDS011;9117;52.420;20.728;2023-03-14T01:03:18;12.63;;;6.20;;
17983;SDS011;9117;52.420;20.728;2023-03-14T01:05:46;12.10;;;5.77;;
17983;SDS011;9117;52.420;20.728;2023-03-14T01:08:16;9.80;;;4.90;;
17983;SDS011;9117;52.420;20.728;2023-03-14T01:10:44;9.83;;;5.13;;
17983;SDS011;9117;52.420;20.728;2023-03-14T01:13:12;11.00;;;5.10;;
17983;SDS011;9117;52.420;20.728;2023-03-14T01:15:40;22.10;;;5.90;;
17983;SDS011;9117;52.420;20.728;2023-03-14T01:18:08;10.40;;;4.97;;
17983;SDS011;9117;52.420;20.728;2023-03-14T01:20:37;10.93;;;4.97;;
17983;SDS011;9117;52.420;20.728;2023-03-14T01:23:05;14.77;;;5.60;;
17983;SDS011;9117;52.420;20.728;2023-03-14T01:25:34;10.03;;;4.90;;
17983;SDS011;9117;52.420;20.728;2023-03-14T01:28:08;13.70;;;5.60;;
17983;SDS011;9117;52.420;20.728;2023-03-14T01:30:36;8.07;;;4.67;;
17983;SDS011;9117;52.420;20.728;2023-03-14T01:33:04;11.33;;;5.37;;
17983;SDS011;9117;52.420;20.728;2023-03-14T01:35:32;16.17;;;5.60;;
17983;SDS011;9117;52.420;20.728;2023-03-14T01:38:00;9.80;;;5.10;;
17983;SDS011;9117;52.420;20.728;2023-03-14T01:40:29;13.60;;;6.10;;
17983;SDS011;9117;52.420;20.728;2023-03-14T01:43:05;11.33;;;5.20;;
17983;SDS011;9117;52.420;20.728;2023-03-14T01:48:45;13.77;;;5.53;;
17983;SDS011;9117;52.420;20.728;2023-03-14T01:51:17;12.17;;;5.20;;
17983;SDS011;9117;52.420;20.728;2023-03-14T01:53:48;12.20;;;5.10;;
17983;SDS011;9117;52.420;20.728;2023-03-14T01:56:18;14.63;;;5.47;;
17983;SDS011;9117;52.420;20.728;2023-03-14T01:58:48;11.37;;;5.43;;
17983;SDS011;9117;52.420;20.728;2023-03-14T02:01:20;14.13;;;5.93;;
17983;SDS011;9117;52.420;20.728;2023-03-14T02:03:53;14.23;;;5.37;;
17983;SDS011;9117;52.420;20.728;2023-03-14T02:06:24;13.83;;;6.13;;
17983;SDS011;9117;52.420;20.728;2023-03-14T02:08:54;13.17;;;5.57;;
17983;SDS011;9117;52.420;20.728;2023-03-14T02:11:23;11.23;;;5.53;;
17983;SDS011;9117;52.420;20.728;2023-03-14T02:13:57;11.83;;;5.80;;
17983;SDS011;9117;52.420;20.728;2023-03-14T02:16:26;10.23;;;5.37;;
17983;SDS011;9117;52.420;20.728;2023-03-14T02:18:55;13.10;;;5.67;;
17983;SDS011;9117;52.420;20.728;2023-03-14T02:21:23;10.13;;;5.50;;
17983;SDS011;9117;52.420;20.728;2023-03-14T02:24:04;12.23;;;5.90;;
17983;SDS011;9117;52.420;20.728;2023-03-14T02:26:41;10.87;;;5.70;;
17983;SDS011;9117;52.420;20.728;2023-03-14T02:29:14;17.30;;;5.93;;
17983;SDS011;9117;52.420;20.728;2023-03-14T02:31:42;13.53;;;5.60;;
17983;SDS011;9117;52.420;20.728;2023-03-14T02:34:11;16.07;;;6.07;;
17983;SDS011;9117;52.420;20.728;2023-03-14T02:36:39;15.40;;;6.57;;
17983;SDS011;9117;52.420;20.728;2023-03-14T02:39:08;13.33;;;5.67;;
17983;SDS011;9117;52.420;20.728;2023-03-14T02:41:41;22.57;;;6.73;;
17983;SDS011;9117;52.420;20.728;2023-03-14T02:44:11;20.57;;;6.57;;
17983;SDS011;9117;52.420;20.728;2023-03-14T02:46:41;22.33;;;7.43;;
17983;SDS011;9117;52.420;20.728;2023-03-14T02:49:10;22.70;;;6.97;;
17983;SDS011;9117;52.420;20.728;2023-03-14T02:51:41;23.10;;;7.97;;
17983;SDS011;9117;52.420;20.728;2023-03-14T02:54:12;13.83;;;5.73;;
17983;SDS011;9117;52.420;20.728;2023-03-14T02:56:42;19.57;;;7.17;;
17983;SDS011;9117;52.420;20.728;2023-03-14T02:59:10;20.53;;;6.30;;
17983;SDS011;9117;52.420;20.728;2023-03-14T03:01:40;18.03;;;7.07;;
17983;SDS011;9117;52.420;20.728;2023-03-14T03:04:08;14.97;;;6.97;;
17983;SDS011;9117;52.420;20.728;2023-03-14T03:06:36;15.10;;;5.80;;
17983;SDS011;9117;52.420;20.728;2023-03-14T03:09:05;14.50;;;5.67;;
17983;SDS011;9117;52.420;20.728;2023-03-14T03:11:33;13.83;;;5.63;;
17983;SDS011;9117;52.420;20.728;2023-03-14T03:14:01;11.53;;;5.33;;
17983;SDS011;9117;52.420;20.728;2023-03-14T03:16:29;10.87;;;5.30;;
17983;SDS011;9117;52.420;20.728;2023-03-14T03:18:59;10.93;;;5.10;;
17983;SDS011;9117;52.420;20.728;2023-03-14T03:21:27;11.37;;;5.40;;
17983;SDS011;9117;52.420;20.728;2023-03-14T03:23:55;11.63;;;4.93;;
17983;SDS011;9117;52.420;20.728;2023-03-14T03:26:23;12.27;;;5.40;;
17983;SDS011;9117;52.420;20.728;2023-03-14T03:28:52;10.83;;;5.27;;
17983;SDS011;9117;52.420;20.728;2023-03-14T03:31:20;10.37;;;4.83;;
17983;SDS011;9117;52.420;20.728;2023-03-14T03:33:48;12.40;;;5.20;;
17983;SDS011;9117;52.420;20.728;2023-03-14T03:36:21;11.30;;;5.43;;
17983;SDS011;9117;52.420;20.728;2023-03-14T03:38:49;13.33;;;5.83;;
17983;SDS011;9117;52.420;20.728;2023-03-14T03:41:18;15.47;;;5.43;;
17983;SDS011;9117;52.420;20.728;2023-03-14T03:43:46;12.63;;;5.13;;
17983;SDS011;9117;52.420;20.728;2023-03-14T03:46:14;10.77;;;5.13;;
17983;SDS011;9117;52.420;20.728;2023-03-14T03:48:42;11.33;;;5.07;;
17983;SDS011;9117;52.420;20.728;2023-03-14T03:51:12;12.03;;;5.50;;
17983;SDS011;9117;52.420;20.728;2023-03-14T03:53:42;10.30;;;5.17;;
17983;SDS011;9117;52.420;20.728;2023-03-14T03:56:10;11.33;;;5.20;;
17983;SDS011;9117;52.420;20.728;2023-03-14T03:58:38;10.03;;;4.90;;
17983;SDS011;9117;52.420;20.728;2023-03-14T04:01:08;9.87;;;5.03;;
17983;SDS011;9117;52.420;20.728;2023-03-14T04:03:38;13.53;;;4.97;;
17983;SDS011;9117;52.420;20.728;2023-03-14T04:06:07;13.33;;;5.07;;
17983;SDS011;9117;52.420;20.728;2023-03-14T04:08:37;10.30;;;5.00;;
17983;SDS011;9117;52.420;20.728;2023-03-14T04:11:08;13.13;;;5.17;;
17983;SDS011;9117;52.420;20.728;2023-03-14T04:13:36;13.47;;;4.90;;
17983;SDS011;9117;52.420;20.728;2023-03-14T04:16:09;10.87;;;4.77;;
17983;SDS011;9117;52.420;20.728;2023-03-14T04:18:41;9.60;;;5.10;;
17983;SDS011;9117;52.420;20.728;2023-03-14T04:21:09;14.57;;;5.17;;
17983;SDS011;9117;52.420;20.728;2023-03-14T04:23:37;8.83;;;5.07;;
17983;SDS011;9117;52.420;20.728;2023-03-14T04:26:05;9.77;;;4.90;;
17983;SDS011;9117;52.420;20.728;2023-03-14T04:28:35;10.70;;;4.73;;
17983;SDS011;9117;52.420;20.728;2023-03-14T04:31:08;11.37;;;5.50;;
17983;SDS011;9117;52.420;20.728;2023-03-14T04:33:37;11.17;;;4.13;;
17983;SDS011;9117;52.420;20.728;2023-03-14T04:36:06;10.33;;;4.73;;
17983;SDS011;9117;52.420;20.728;2023-03-14T04:38:35;8.57;;;4.50;;
17983;SDS011;9117;52.420;20.728;2023-03-14T04:41:03;13.13;;;4.80;;
17983;SDS011;9117;52.420;20.728;2023-03-14T04:43:33;9.13;;;4.60;;
17983;SDS011;9117;52.420;20.728;2023-03-14T04:46:02;9.93;;;4.63;;
17983;SDS011;9117;52.420;20.728;2023-03-14T04:48:30;11.80;;;5.17;;
17983;SDS011;9117;52.420;20.728;2023-03-14T04:50:58;11.27;;;4.57;;
17983;SDS011;9117;52.420;20.728;2023-03-14T04:53:26;9.73;;;4.57;;
17983;SDS011;9117;52.420;20.728;2023-03-14T04:55:58;9.43;;;4.27;;
17983;SDS011;9117;52.420;20.728;2023-03-14T04:58:26;9.47;;;4.60;;
17983;SDS011;9117;52.420;20.728;2023-03-14T05:00:55;9.07;;;4.20;;
17983;SDS011;9117;52.420;20.728;2023-03-14T05:03:28;9.90;;;4.00;;
17983;SDS011;9117;52.420;20.728;2023-03-14T05:05:56;11.43;;;4.73;;
17983;SDS011;9117;52.420;20.728;2023-03-14T05:08:25;8.47;;;4.00;;
17983;SDS011;9117;52.420;20.728;2023-03-14T05:10:53;7.07;;;3.93;;
17983;SDS011;9117;52.420;20.728;2023-03-14T05:13:22;11.60;;;4.70;;
17983;SDS011;9117;52.420;20.728;2023-03-14T05:15:50;10.57;;;4.23;;
17983;SDS011;9117;52.420;20.728;2023-03-14T05:18:20;10.33;;;4.20;;
17983;SDS011;9117;52.420;20.728;2023-03-14T05:20:50;8.13;;;3.87;;
17983;SDS011;9117;52.420;20.728;2023-03-14T05:23:18;11.43;;;4.63;;
17983;SDS011;9117;52.420;20.728;2023-03-14T05:25:47;8.40;;;4.40;;
17983;SDS011;9117;52.420;20.728;2023-03-14T05:28:15;12.00;;;3.73;;
17983;SDS011;9117;52.420;20.728;2023-03-14T05:30:43;9.23;;;3.90;;
17983;SDS011;9117;52.420;20.728;2023-03-14T05:33:11;11.90;;;4.63;;
17983;SDS011;9117;52.420;20.728;2023-03-14T05:35:41;11.03;;;4.33;;
17983;SDS011;9117;52.420;20.728;2023-03-14T05:38:09;9.80;;;4.30;;
17983;SDS011;9117;52.420;20.728;2023-03-14T05:40:37;10.07;;;4.50;;
17983;SDS011;9117;52.420;20.728;2023-03-14T05:43:05;7.77;;;3.87;;
17983;SDS011;9117;52.420;20.728;2023-03-14T05:45:34;10.33;;;4.47;;
17983;SDS011;9117;52.420;20.728;2023-03-14T05:48:02;10.43;;;4.37;;
17983;SDS011;9117;52.420;20.728;2023-03-14T05:50:31;8.77;;;4.13;;
17983;SDS011;9117;52.420;20.728;2023-03-14T05:53:02;9.47;;;4.57;;
17983;SDS011;9117;52.420;20.728;2023-03-14T05:55:32;10.83;;;4.43;;
17983;SDS011;9117;52.420;20.728;2023-03-14T05:58:01;9.93;;;4.17;;
17983;SDS011;9117;52.420;20.728;2023-03-14T06:00:29;14.20;;;4.10;;
17983;SDS011;9117;52.420;20.728;2023-03-14T06:02:57;9.03;;;3.87;;
17983;SDS011;9117;52.420;20.728;2023-03-14T06:05:25;8.40;;;3.50;;
17983;SDS011;9117;52.420;20.728;2023-03-14T06:07:53;10.20;;;4.07;;
17983;SDS011;9117;52.420;20.728;2023-03-14T06:10:23;10.83;;;3.90;;
17983;SDS011;9117;52.420;20.728;2023-03-14T06:12:51;14.03;;;4.33;;
17983;SDS011;9117;52.420;20.728;2023-03-14T06:15:20;9.43;;;4.10;;
17983;SDS011;9117;52.420;20.728;2023-03-14T06:17:48;9.83;;;3.83;;
17983;SDS011;9117;52.420;20.728;2023-03-14T06:20:16;7.43;;;3.47;;
17983;SDS011;9117;52.420;20.728;2023-03-14T06:22:44;7.60;;;3.53;;
17983;SDS011;9117;52.420;20.728;2023-03-14T06:25:13;7.47;;;3.60;;
17983;SDS011;9117;52.420;20.728;2023-03-14T06:27:42;6.17;;;3.40;;
17983;SDS011;9117;52.420;20.728;2023-03-14T06:30:11;7.40;;;3.30;;
17983;SDS011;9117;52.420;20.728;2023-03-14T06:32:39;6.73;;;3.67;;
17983;SDS011;9117;52.420;20.728;2023-03-14T06:35:08;8.20;;;3.40;;
17983;SDS011;9117;52.420;20.728;2023-03-14T06:37:36;6.50;;;3.63;;
17983;SDS011;9117;52.420;20.728;2023-03-14T06:40:05;6.33;;;3.20;;
17983;SDS011;9117;52.420;20.728;2023-03-14T06:42:34;10.80;;;3.67;;
17983;SDS011;9117;52.420;20.728;2023-03-14T06:45:05;9.13;;;4.00;;
17983;SDS011;9117;52.420;20.728;2023-03-14T06:47:34;10.03;;;4.10;;
17983;SDS011;9117;52.420;20.728;2023-03-14T06:50:05;7.30;;;3.53;;
17983;SDS011;9117;52.420;20.728;2023-03-14T06:52:34;5.73;;;3.40;;
17983;SDS011;9117;52.420;20.728;2023-03-14T06:55:02;6.73;;;3.20;;
17983;SDS011;9117;52.420;20.728;2023-03-14T06:57:30;6.60;;;3.10;;
17983;SDS011;9117;52.420;20.728;2023-03-14T06:59:59;9.05;;;3.42;;
17983;SDS011;9117;52.420;20.728;2023-03-14T07:02:28;7.33;;;3.50;;
17983;SDS011;9117;52.420;20.728;2023-03-14T07:05:09;6.50;;;3.23;;
17983;SDS011;9117;52.420;20.728;2023-03-14T07:07:38;7.27;;;3.37;;
17983;SDS011;9117;52.420;20.728;2023-03-14T07:10:06;5.60;;;3.15;;
17983;SDS011;9117;52.420;20.728;2023-03-14T07:12:35;9.07;;;3.37;;
17983;SDS011;9117;52.420;20.728;2023-03-14T07:15:04;9.00;;;3.37;;
17983;SDS011;9117;52.420;20.728;2023-03-14T07:17:45;5.75;;;3.00;;
17983;SDS011;9117;52.420;20.728;2023-03-14T07:20:14;6.88;;;3.10;;
17983;SDS011;9117;52.420;20.728;2023-03-14T07:22:43;7.03;;;3.17;;
17983;SDS011;9117;52.420;20.728;2023-03-14T07:25:14;8.30;;;3.55;;
17983;SDS011;9117;52.420;20.728;2023-03-14T07:27:42;6.07;;;2.88;;
17983;SDS011;9117;52.420;20.728;2023-03-14T07:30:11;11.35;;;3.72;;
17983;SDS011;9117;52.420;20.728;2023-03-14T07:32:40;9.23;;;3.58;;
17983;SDS011;9117;52.420;20.728;2023-03-14T07:35:09;6.43;;;2.97;;
17983;SDS011;9117;52.420;20.728;2023-03-14T07:37:38;7.50;;;3.85;;
17983;SDS011;9117;52.420;20.728;2023-03-14T07:40:06;9.27;;;2.90;;
17983;SDS011;9117;52.420;20.728;2023-03-14T07:42:36;7.57;;;3.30;;
17983;SDS011;9117;52.420;20.728;2023-03-14T07:45:05;6.18;;;3.22;;
17983;SDS011;9117;52.420;20.728;2023-03-14T07:47:34;7.18;;;3.22;;
17983;SDS011;9117;52.420;20.728;2023-03-14T07:50:03;10.77;;;3.40;;
17983;SDS011;9117;52.420;20.728;2023-03-14T07:52:33;8.13;;;3.45;;
17983;SDS011;9117;52.420;20.728;2023-03-14T07:55:02;7.72;;;3.55;;
17983;SDS011;9117;52.420;20.728;2023-03-14T07:57:30;6.35;;;3.35;;
17983;SDS011;9117;52.420;20.728;2023-03-14T07:59:58;9.70;;;3.55;;
17983;SDS011;9117;52.420;20.728;2023-03-14T08:02:26;9.77;;;3.67;;
17983;SDS011;9117;52.420;20.728;2023-03-14T08:04:54;10.05;;;3.85;;
17983;SDS011;9117;52.420;20.728;2023-03-14T08:07:23;8.00;;;3.30;;
17983;SDS011;9117;52.420;20.728;2023-03-14T08:09:52;8.93;;;3.60;;
17983;SDS011;9117;52.420;20.728;2023-03-14T08:12:20;9.93;;;3.50;;
17983;SDS011;9117;52.420;20.728;2023-03-14T08:14:49;8.70;;;3.72;;
17983;SDS011;9117;52.420;20.728;2023-03-14T08:17:17;6.18;;;3.47;;
17983;SDS011;9117;52.420;20.728;2023-03-14T08:19:45;6.80;;;4.10;;
17983;SDS011;9117;52.420;20.728;2023-03-14T08:22:13;8.60;;;3.55;;
17983;SDS011;9117;52.420;20.728;2023-03-14T08:24:45;7.35;;;3.53;;
17983;SDS011;9117;52.420;20.728;2023-03-14T08:27:14;9.50;;;3.35;;
17983;SDS011;9117;52.420;20.728;2023-03-14T08:29:42;6.97;;;3.67;;
17983;SDS011;9117;52.420;20.728;2023-03-14T08:32:11;8.80;;;3.67;;
17983;SDS011;9117;52.420;20.728;2023-03-14T08:34:39;9.88;;;3.45;;
17983;SDS011;9117;52.420;20.728;2023-03-14T08:37:07;7.65;;;3.28;;
17983;SDS011;9117;52.420;20.728;2023-03-14T08:39:51;10.02;;;3.65;;
17983;SDS011;9117;52.420;20.728;2023-03-14T08:42:20;8.32;;;3.70;;
17983;SDS011;9117;52.420;20.728;2023-03-14T08:44:50;6.65;;;3.25;;
17983;SDS011;9117;52.420;20.728;2023-03-14T08:47:18;11.90;;;3.85;;
17983;SDS011;9117;52.420;20.728;2023-03-14T08:49:46;7.57;;;3.47;;
17983;SDS011;9117;52.420;20.728;2023-03-14T08:52:15;7.05;;;3.40;;
17983;SDS011;9117;52.420;20.728;2023-03-14T08:54:43;5.35;;;3.53;;
17983;SDS011;9117;52.420;20.728;2023-03-14T08:57:11;6.55;;;3.65;;
17983;SDS011;9117;52.420;20.728;2023-03-14T08:59:41;7.93;;;3.25;;
17983;SDS011;9117;52.420;20.728;2023-03-14T09:02:10;5.70;;;3.00;;
17983;SDS011;9117;52.420;20.728;2023-03-14T09:04:39;6.03;;;3.60;;
17983;SDS011;9117;52.420;20.728;2023-03-14T09:07:07;8.15;;;3.65;;
17983;SDS011;9117;52.420;20.728;2023-03-14T09:09:39;7.22;;;3.90;;
17983;SDS011;9117;52.420;20.728;2023-03-14T09:12:07;6.57;;;3.40;;
17983;SDS011;9117;52.420;20.728;2023-03-14T09:14:35;8.90;;;3.95;;
17983;SDS011;9117;52.420;20.728;2023-03-14T09:17:05;7.70;;;4.13;;
17983;SDS011;9117;52.420;20.728;2023-03-14T09:19:34;6.43;;;3.00;;
17983;SDS011;9117;52.420;20.728;2023-03-14T09:22:02;9.27;;;3.88;;
17983;SDS011;9117;52.420;20.728;2023-03-14T09:24:31;9.15;;;4.20;;
17983;SDS011;9117;52.420;20.728;2023-03-14T09:26:59;9.02;;;3.60;;
17983;SDS011;9117;52.420;20.728;2023-03-14T09:29:29;6.32;;;3.15;;
17983;SDS011;9117;52.420;20.728;2023-03-14T09:31:57;12.38;;;3.67;;
17983;SDS011;9117;52.420;20.728;2023-03-14T09:34:27;9.15;;;3.40;;
17983;SDS011;9117;52.420;20.728;2023-03-14T09:36:55;9.10;;;3.85;;
17983;SDS011;9117;52.420;20.728;2023-03-14T09:39:24;8.45;;;4.03;;
17983;SDS011;9117;52.420;20.728;2023-03-14T09:41:52;10.32;;;3.67;;
17983;SDS011;9117;52.420;20.728;2023-03-14T09:44:24;8.02;;;3.63;;
17983;SDS011;9117;52.420;20.728;2023-03-14T09:46:56;6.97;;;3.30;;
17983;SDS011;9117;52.420;20.728;2023-03-14T09:49:30;7.45;;;3.72;;
17983;SDS011;9117;52.420;20.728;2023-03-14T09:52:02;6.90;;;3.45;;
17983;SDS011;9117;52.420;20.728;2023-03-14T09:54:35;9.18;;;3.90;;
17983;SDS011;9117;52.420;20.728;2023-03-14T09:57:06;11.07;;;3.50;;
17983;SDS011;9117;52.420;20.728;2023-03-14T09:59:41;8.30;;;3.55;;
17983;SDS011;9117;52.420;20.728;2023-03-14T10:02:13;9.63;;;3.75;;
17983;SDS011;9117;52.420;20.728;2023-03-14T10:04:46;8.48;;;4.22;;
17983;SDS011;9117;52.420;20.728;2023-03-14T10:07:17;7.53;;;3.75;;
17983;SDS011;9117;52.420;20.728;2023-03-14T10:09:47;10.00;;;3.28;;
17983;SDS011;9117;52.420;20.728;2023-03-14T10:12:17;8.10;;;4.28;;
17983;SDS011;9117;52.420;20.728;2023-03-14T10:14:47;13.18;;;4.10;;
17983;SDS011;9117;52.420;20.728;2023-03-14T10:17:17;8.25;;;3.85;;
17983;SDS011;9117;52.420;20.728;2023-03-14T10:19:57;9.73;;;3.88;;
17983;SDS011;9117;52.420;20.728;2023-03-14T10:22:27;9.52;;;3.47;;
17983;SDS011;9117;52.420;20.728;2023-03-14T10:24:59;10.43;;;3.90;;
17983;SDS011;9117;52.420;20.728;2023-03-14T10:27:30;7.63;;;3.55;;
17983;SDS011;9117;52.420;20.728;2023-03-14T10:30:26;6.25;;;3.60;;
17983;SDS011;9117;52.420;20.728;2023-03-14T10:33:07;9.27;;;3.92;;
17983;SDS011;9117;52.420;20.728;2023-03-14T10:35:38;5.57;;;3.47;;
17983;SDS011;9117;52.420;20.728;2023-03-14T10:38:11;10.45;;;3.88;;
17983;SDS011;9117;52.420;20.728;2023-03-14T10:40:41;6.93;;;3.53;;
17983;SDS011;9117;52.420;20.728;2023-03-14T10:43:16;9.07;;;5.25;;
17983;SDS011;9117;52.420;20.728;2023-03-14T10:45:51;7.85;;;3.80;;
17983;SDS011;9117;52.420;20.728;2023-03-14T10:48:25;8.00;;;3.95;;
17983;SDS011;9117;52.420;20.728;2023-03-14T10:51:03;8.90;;;4.00;;
17983;SDS011;9117;52.420;20.728;2023-03-14T10:53:34;8.25;;;4.53;;
17983;SDS011;9117;52.420;20.728;2023-03-14T10:56:11;12.77;;;3.90;;
17983;SDS011;9117;52.420;20.728;2023-03-14T10:58:41;8.13;;;3.80;;
17983;SDS011;9117;52.420;20.728;2023-03-14T11:01:17;7.05;;;3.72;;
17983;SDS011;9117;52.420;20.728;2023-03-14T11:04:13;9.35;;;3.67;;
17983;SDS011;9117;52.420;20.728;2023-03-14T11:06:48;8.18;;;3.63;;
17983;SDS011;9117;52.420;20.728;2023-03-14T11:09:25;9.77;;;3.60;;
17983;SDS011;9117;52.420;20.728;2023-03-14T11:12:01;10.55;;;4.10;;
17983;SDS011;9117;52.420;20.728;2023-03-14T11:14:41;8.38;;;4.22;;
17983;SDS011;9117;52.420;20.728;2023-03-14T11:17:15;7.75;;;3.80;;
17983;SDS011;9117;52.420;20.728;2023-03-14T11:19:57;8.13;;;4.10;;
17983;SDS011;9117;52.420;20.728;2023-03-14T11:22:46;10.32;;;4.57;;
17983;SDS011;9117;52.420;20.728;2023-03-14T11:25:21;9.70;;;4.05;;
17983;SDS011;9117;52.420;20.728;2023-03-14T11:28:00;7.68;;;3.72;;
17983;SDS011;9117;52.420;20.728;2023-03-14T11:30:37;9.02;;;4.53;;
17983;SDS011;9117;52.420;20.728;2023-03-14T11:33:13;9.45;;;4.32;;
17983;SDS011;9117;52.420;20.728;2023-03-14T11:35:44;9.00;;;4.40;;
17983;SDS011;9117;52.420;20.728;2023-03-14T11:38:23;7.95;;;3.97;;
17983;SDS011;9117;52.420;20.728;2023-03-14T11:40:57;10.32;;;4.65;;
17983;SDS011;9117;52.420;20.728;2023-03-14T11:43:27;11.90;;;4.63;;
17983;SDS011;9117;52.420;20.728;2023-03-14T11:45:58;11.63;;;4.63;;
17983;SDS011;9117;52.420;20.728;2023-03-14T11:48:35;8.85;;;4.43;;
17983;SDS011;9117;52.420;20.728;2023-03-14T11:51:10;9.95;;;4.88;;
17983;SDS011;9117;52.420;20.728;2023-03-14T11:53:45;12.00;;;4.65;;
17983;SDS011;9117;52.420;20.728;2023-03-14T11:56:24;12.65;;;4.60;;
17983;SDS011;9117;52.420;20.728;2023-03-14T11:58:59;7.38;;;4.10;;
17983;SDS011;9117;52.420;20.728;2023-03-14T12:01:35;8.73;;;4.65;;
17983;SDS011;9117;52.420;20.728;2023-03-14T12:04:13;10.88;;;4.75;;
17983;SDS011;9117;52.420;20.728;2023-03-14T12:06:49;15.07;;;5.30;;
17983;SDS011;9117;52.420;20.728;2023-03-14T12:09:19;10.20;;;4.90;;
17983;SDS011;9117;52.420;20.728;2023-03-14T12:11:49;10.75;;;4.75;;
17983;SDS011;9117;52.420;20.728;2023-03-14T12:14:23;13.52;;;5.25;;
17983;SDS011;9117;52.420;20.728;2023-03-14T12:16:55;15.32;;;5.32;;
17983;SDS011;9117;52.420;20.728;2023-03-14T12:19:29;9.20;;;4.72;;
17983;SDS011;9117;52.420;20.728;2023-03-14T12:22:01;13.32;;;4.82;;
17983;SDS011;9117;52.420;20.728;2023-03-14T12:24:37;11.93;;;4.65;;
17983;SDS011;9117;52.420;20.728;2023-03-14T12:27:06;11.25;;;4.72;;
17983;SDS011;9117;52.420;20.728;2023-03-14T12:32:29;11.18;;;5.30;;
17983;SDS011;9117;52.420;20.728;2023-03-14T12:35:01;14.88;;;5.72;;
17983;SDS011;9117;52.420;20.728;2023-03-14T12:37:55;11.32;;;4.93;;
17983;SDS011;9117;52.420;20.728;2023-03-14T12:40:29;13.40;;;5.65;;
17983;SDS011;9117;52.420;20.728;2023-03-14T12:43:00;11.63;;;5.68;;
17983;SDS011;9117;52.420;20.728;2023-03-14T12:45:29;12.57;;;5.60;;
17983;SDS011;9117;52.420;20.728;2023-03-14T12:48:08;13.65;;;5.70;;
17983;SDS011;9117;52.420;20.728;2023-03-14T12:50:40;12.52;;;5.82;;
17983;SDS011;9117;52.420;20.728;2023-03-14T12:56:15;12.35;;;6.30;;
17983;SDS011;9117;52.420;20.728;2023-03-14T12:59:01;12.00;;;5.82;;
17983;SDS011;9117;52.420;20.728;2023-03-14T13:01:45;11.35;;;5.75;;
17983;SDS011;9117;52.420;20.728;2023-03-14T13:04:15;10.82;;;5.60;;
17983;SDS011;9117;52.420;20.728;2023-03-14T13:06:54;14.82;;;6.40;;
17983;SDS011;9117;52.420;20.728;2023-03-14T13:09:36;15.77;;;6.72;;
17983;SDS011;9117;52.420;20.728;2023-03-14T13:12:32;14.90;;;6.22;;
17983;SDS011;9117;52.420;20.728;2023-03-14T13:17:59;16.08;;;7.30;;
17983;SDS011;9117;52.420;20.728;2023-03-14T13:20:32;15.27;;;6.90;;
17983;SDS011;9117;52.420;20.728;2023-03-14T13:23:05;15.70;;;7.57;;
17983;SDS011;9117;52.420;20.728;2023-03-14T13:25:46;15.88;;;8.13;;
17983;SDS011;9117;52.420;20.728;2023-03-14T13:28:16;17.00;;;8.35;;
17983;SDS011;9117;52.420;20.728;2023-03-14T13:30:44;16.63;;;7.00;;
17983;SDS011;9117;52.420;20.728;2023-03-14T13:33:14;12.48;;;6.75;;
17983;SDS011;9117;52.420;20.728;2023-03-14T13:35:45;14.88;;;7.13;;
17983;SDS011;9117;52.420;20.728;2023-03-14T13:38:16;15.50;;;7.15;;
17983;SDS011;9117;52.420;20.728;2023-03-14T13:40:49;13.50;;;6.90;;
17983;SDS011;9117;52.420;20.728;2023-03-14T13:43:24;16.25;;;7.60;;
17983;SDS011;9117;52.420;20.728;2023-03-14T13:46:12;13.13;;;6.28;;
17983;SDS011;9117;52.420;20.728;2023-03-14T13:48:43;16.60;;;7.05;;
17983;SDS011;9117;52.420;20.728;2023-03-14T13:51:16;12.97;;;6.60;;
17983;SDS011;9117;52.420;20.728;2023-03-14T13:53:46;14.77;;;7.57;;
17983;SDS011;9117;52.420;20.728;2023-03-14T13:56:17;11.63;;;6.50;;
17983;SDS011;9117;52.420;20.728;2023-03-14T13:58:48;14.80;;;7.07;;
17983;SDS011;9117;52.420;20.728;2023-03-14T14:01:18;12.07;;;7.10;;
17983;SDS011;9117;52.420;20.728;2023-03-14T14:03:47;13.13;;;6.35;;
17983;SDS011;9117;52.420;20.728;2023-03-14T14:06:28;11.50;;;5.83;;
17983;SDS011;9117;52.420;20.728;2023-03-14T14:08:59;10.83;;;6.37;;
17983;SDS011;9117;52.420;20.728;2023-03-14T14:11:35;10.70;;;6.80;;
17983;SDS011;9117;52.420;20.728;2023-03-14T14:14:21;11.85;;;6.18;;
17983;SDS011;9117;52.420;20.728;2023-03-14T14:16:53;13.40;;;6.72;;
17983;SDS011;9117;52.420;20.728;2023-03-14T14:19:22;11.40;;;6.38;;
17983;SDS011;9117;52.420;20.728;2023-03-14T14:21:52;12.10;;;6.57;;
17983;SDS011;9117;52.420;20.728;2023-03-14T14:24:22;15.88;;;6.38;;
17983;SDS011;9117;52.420;20.728;2023-03-14T14:26:52;13.77;;;6.90;;
17983;SDS011;9117;52.420;20.728;2023-03-14T14:29:25;13.15;;;6.72;;
17983;SDS011;9117;52.420;20.728;2023-03-14T14:32:09;13.60;;;6.57;;
17983;SDS011;9117;52.420;20.728;2023-03-14T14:34:41;12.45;;;7.00;;
17983;SDS011;9117;52.420;20.728;2023-03-14T14:37:18;12.87;;;6.63;;
17983;SDS011;9117;52.420;20.728;2023-03-14T14:39:47;12.73;;;7.87;;
17983;SDS011;9117;52.420;20.728;2023-03-14T14:42:19;15.85;;;7.00;;
17983;SDS011;9117;52.420;20.728;2023-03-14T14:44:51;13.90;;;7.03;;
17983;SDS011;9117;52.420;20.728;2023-03-14T14:47:20;12.98;;;6.45;;
17983;SDS011;9117;52.420;20.728;2023-03-14T14:49:51;11.97;;;6.97;;
17983;SDS011;9117;52.420;20.728;2023-03-14T14:52:21;14.03;;;6.50;;
17983;SDS011;9117;52.420;20.728;2023-03-14T14:55:00;11.90;;;6.50;;
17983;SDS011;9117;52.420;20.728;2023-03-14T14:57:31;13.50;;;6.83;;
17983;SDS011;9117;52.420;20.728;2023-03-14T15:00:05;12.27;;;6.73;;
17983;SDS011;9117;52.420;20.728;2023-03-14T15:02:38;14.83;;;6.43;;
17983;SDS011;9117;52.420;20.728;2023-03-14T15:05:13;14.20;;;7.20;;
17983;SDS011;9117;52.420;20.728;2023-03-14T15:07:42;12.70;;;6.83;;
17983;SDS011;9117;52.420;20.728;2023-03-14T15:10:11;17.63;;;7.57;;
17983;SDS011;9117;52.420;20.728;2023-03-14T15:12:40;10.17;;;6.07;;
17983;SDS011;9117;52.420;20.728;2023-03-14T15:15:10;19.77;;;6.77;;